Independence — WDD6659 — position and weather

sailwx.info

Track history (hours):
 
Tides and Currents Weather Stations Pressure Air Temp Water Temp Dewpoint Dewpoint Depression Visibility Wind Speed Wind Dir Waves Ship Positions

Independence

Owner: AMNAV Maritime Corporation, Oakland, CA. More information available from US FCC via Universal Licensing System and Coast Guard Vessel Documentation Center.

Last reported at 2017-Aug-18 04:30 UTC. Time now 2017-Aug-18 04:53 UTC.
Position N 33°43' W 118°16'.

Length 24 m; draft 4.9 m.

Type: Tug. MMSI: 367175860.

Date/timePositionNaut miles runAvg speedWind from/ knotsBaromVisibWave heightAir tempDewpointWater temp
2017-Aug-18 04:30N 33°43' W 118°16'3 5.7
2017-Aug-18 03:58N 33°45' W 118°13'1 2.9
2017-Aug-18 03:30N 33°46' W 118°14'0 0.1
2017-Aug-18 02:59N 33°46' W 118°14'3 4.9
2017-Aug-18 02:22N 33°43' W 118°14'2 6.2
2017-Aug-18 02:00N 33°44' W 118°17'0 0.0
2017-Aug-18 01:30N 33°44' W 118°17'0 0.0
2017-Aug-18 00:58N 33°44' W 118°17'0 0.0
2017-Aug-18 00:30N 33°44' W 118°17'0 0.0
2017-Aug-18 00:00N 33°44' W 118°17'1 1.7
2017-Aug-17 23:30N 33°45' W 118°17'0 0.7
2017-Aug-17 23:00N 33°45' W 118°16'1 0.2
2017-Aug-17 17:41N 33°44' W 118°17'0 0.0
2017-Aug-17 14:13N 33°44' W 118°17'1 2.6
2017-Aug-17 13:56N 33°44' W 118°17'1 1.7
2017-Aug-17 13:29N 33°45' W 118°16'0 0.4
2017-Aug-17 13:00N 33°45' W 118°16'2 0.1
2017-Aug-17 01:06N 33°44' W 118°17'0 3.1
2017-Aug-17 00:59N 33°43' W 118°16'2 0.6
2017-Aug-16 22:02N 33°42' W 118°15'2 0.3
2017-Aug-16 13:26N 33°44' W 118°16'0 0.0
2017-Aug-16 12:38N 33°44' W 118°16'0 0.0
2017-Aug-16 12:15N 33°44' W 118°16'0 0.0
2017-Aug-16 12:00N 33°44' W 118°16'0 0.0
2017-Aug-16 08:20N 33°44' W 118°16'0 0.0
2017-Aug-16 07:59N 33°44' W 118°16'0 0.0
2017-Aug-16 07:14N 33°44' W 118°16'0 0.0
2017-Aug-16 04:26N 33°44' W 118°16'0 0.0
2017-Aug-16 03:56N 33°44' W 118°16'0 0.0
2017-Aug-16 02:47N 33°44' W 118°16'0 0.0
2017-Aug-16 02:28N 33°44' W 118°16'3 0.2
2017-Aug-15 05:55N 33°45' W 118°13'3 0.5
2017-Aug-14 23:33N 33°44' W 118°16'0 0.1
2017-Aug-14 23:22N 33°44' W 118°16'2 5.2
2017-Aug-14 23:00N 33°45' W 118°16'1 2.7
2017-Aug-14 22:29N 33°46' W 118°14'1 2.2
2017-Aug-14 22:00N 33°45' W 118°13'1 0.5
2017-Aug-14 20:48N 33°45' W 118°13'0 0.3
2017-Aug-14 19:50N 33°45' W 118°13'3 0.5
2017-Aug-14 13:23N 33°44' W 118°16'3 6.4
2017-Aug-14 12:58N 33°44' W 118°13'2 2.7
2017-Aug-14 12:25N 33°44' W 118°12'1 1.1
2017-Aug-14 11:43N 33°44' W 118°12'4 3.2
2017-Aug-14 10:31N 33°43' W 118°16'0 6.6
2017-Aug-14 10:30N 33°44' W 118°16'0 0.0
2017-Aug-14 02:29N 33°44' W 118°16'2 4.0
2017-Aug-14 02:00N 33°46' W 118°16'0 0.4
2017-Aug-14 00:59N 33°46' W 118°15'2 3.6
2017-Aug-14 00:30N 33°44' W 118°17'2 4.8
2017-Aug-14 00:00N 33°43' W 118°15'1 1.0
2017-Aug-13 23:30N 33°43' W 118°15'2 4.6
2017-Aug-13 22:59N 33°45' W 118°16'0 0.5
2017-Aug-13 22:30N 33°45' W 118°16'2 3.1
2017-Aug-13 22:01N 33°44' W 118°17'2 2.4
2017-Aug-13 21:19N 33°43' W 118°15'1 1.9
2017-Aug-13 20:33N 33°44' W 118°16'2 1.4
2017-Aug-13 19:29N 33°43' W 118°15'1 2.0
2017-Aug-13 18:51N 33°43' W 118°16'2 5.0
2017-Aug-13 18:29N 33°45' W 118°16'1 1.0
2017-Aug-13 17:48N 33°46' W 118°16'0 0.5
2017-Aug-13 17:07N 33°45' W 118°16'1 5.9
2017-Aug-13 17:00N 33°45' W 118°16'1 2.4
2017-Aug-13 16:29N 33°44' W 118°16'0 0.0
2017-Aug-13 13:25N 33°44' W 118°16'2 6.0
2017-Aug-13 13:00N 33°44' W 118°13'2 0.9
2017-Aug-13 11:09N 33°45' W 118°13'0 0.2
2017-Aug-13 11:00N 33°45' W 118°13'3 3.2
2017-Aug-13 10:12N 33°44' W 118°11'2 3.3
2017-Aug-13 09:32N 33°43' W 118°14'1 9.2
2017-Aug-13 09:29N 33°43' W 118°14'2 3.7
2017-Aug-13 08:59N 33°44' W 118°16'0 0.0
2017-Aug-13 07:31N 33°44' W 118°16'0 0.0
2017-Aug-13 03:44N 33°44' W 118°16'0 0.0
2017-Aug-13 03:19N 33°44' W 118°16'0 0.0
2017-Aug-13 03:00N 33°44' W 118°16'0 0.0
2017-Aug-13 02:15N 33°44' W 118°16'0 0.0
2017-Aug-13 02:00N 33°44' W 118°16'0 0.0
2017-Aug-13 01:26N 33°44' W 118°16'0 0.0
2017-Aug-13 00:59N 33°44' W 118°16'0 0.0
2017-Aug-13 00:08N 33°44' W 118°16'0 0.0
2017-Aug-12 23:55N 33°44' W 118°16'0 0.0
2017-Aug-12 23:30N 33°44' W 118°16'0 0.0
2017-Aug-12 23:00N 33°44' W 118°16'0 0.0
2017-Aug-12 20:57N 33°44' W 118°16'0 0.0
2017-Aug-12 20:30N 33°44' W 118°16'0 0.0
2017-Aug-12 19:00N 33°44' W 118°16'0 0.0
2017-Aug-12 18:29N 33°44' W 118°16'0 0.0
2017-Aug-12 18:00N 33°44' W 118°16'0 0.0
2017-Aug-12 14:56N 33°44' W 118°16'0 0.0
2017-Aug-12 10:14N 33°44' W 118°16'0 0.0
2017-Aug-12 09:54N 33°44' W 118°16'0 0.0
2017-Aug-12 09:26N 33°44' W 118°16'0 0.0
2017-Aug-12 08:55N 33°44' W 118°16'0 0.0
2017-Aug-12 08:30N 33°44' W 118°16'0 0.0
2017-Aug-12 07:58N 33°44' W 118°16'0 0.0
2017-Aug-12 07:27N 33°44' W 118°16'0 0.0
2017-Aug-12 07:00N 33°44' W 118°16'0 0.0
2017-Aug-12 06:30N 33°44' W 118°16'0 0.0
2017-Aug-12 06:00N 33°44' W 118°16'0 0.0
2017-Aug-12 05:30N 33°44' W 118°16'0 0.0
2017-Aug-12 05:00N 33°44' W 118°16'0 0.0
2017-Aug-12 04:30N 33°44' W 118°16'0 0.0
2017-Aug-12 04:00N 33°44' W 118°16'0 0.0
2017-Aug-12 03:30N 33°44' W 118°16'0 0.0
2017-Aug-12 02:58N 33°44' W 118°16'3 6.2
2017-Aug-12 02:31N 33°44' W 118°13'1 2.1
2017-Aug-12 02:00N 33°45' W 118°12'1 1.9
2017-Aug-12 01:30N 33°44' W 118°13'3 4.5
2017-Aug-12 00:51N 33°44' W 118°16'0 0.0
2017-Aug-12 00:30N 33°44' W 118°16'0 0.0
2017-Aug-12 00:00N 33°44' W 118°16'0 0.0
2017-Aug-11 23:30N 33°44' W 118°16'0 0.0
2017-Aug-11 23:00N 33°44' W 118°16'0 0.0
2017-Aug-11 22:30N 33°44' W 118°16'0 0.0
2017-Aug-11 22:00N 33°44' W 118°16'0 0.0
2017-Aug-11 21:29N 33°44' W 118°16'0 0.0
2017-Aug-11 20:59N 33°44' W 118°16'0 0.0
2017-Aug-11 20:21N 33°44' W 118°16'0 0.1
2017-Aug-11 18:47N 33°44' W 118°17'0 0.0
2017-Aug-11 16:50N 33°44' W 118°17'0 0.1
2017-Aug-11 15:54N 33°44' W 118°16'0 0.0
2017-Aug-11 13:10N 33°44' W 118°17'2 7.0
2017-Aug-11 12:55N 33°43' W 118°15'3 8.0
2017-Aug-11 12:30N 33°44' W 118°11'0 0.9
2017-Aug-11 11:59N 33°44' W 118°11'0 0.8
2017-Aug-11 11:29N 33°44' W 118°11'4 8.0
2017-Aug-11 10:58N 33°43' W 118°16'1 1.5
2017-Aug-11 10:28N 33°44' W 118°17'0 0.0
2017-Aug-11 10:00N 33°44' W 118°17'0 0.0
2017-Aug-11 05:33N 33°44' W 118°17'0 0.0
2017-Aug-11 05:30N 33°44' W 118°17'0 0.0
2017-Aug-11 03:28N 33°44' W 118°17'0 0.2
2017-Aug-11 03:01N 33°44' W 118°16'1 2.6
2017-Aug-11 02:30N 33°45' W 118°16'0 0.7
2017-Aug-11 02:00N 33°45' W 118°16'0 0.1
2017-Aug-11 01:28N 33°45' W 118°16'2 4.2
2017-Aug-11 01:00N 33°43' W 118°16'1 3.0
2017-Aug-11 00:30N 33°45' W 118°16'1 1.6
2017-Aug-10 23:59N 33°44' W 118°16'0 0.3
2017-Aug-10 23:30N 33°44' W 118°17'0 0.0
2017-Aug-10 22:58N 33°44' W 118°17'0 0.0
2017-Aug-10 22:29N 33°44' W 118°17'0 0.0
2017-Aug-10 22:00N 33°44' W 118°17'2 4.8
2017-Aug-10 21:30N 33°44' W 118°14'2 3.7
2017-Aug-10 21:00N 33°45' W 118°13'1 1.7
2017-Aug-10 20:30N 33°46' W 118°13'1 2.1
2017-Aug-10 20:00N 33°45' W 118°13'0 0.5
2017-Aug-10 19:28N 33°45' W 118°13'0 0.0
2017-Aug-10 18:58N 33°45' W 118°13'0 0.5
2017-Aug-10 18:30N 33°45' W 118°13'0 0.1
2017-Aug-10 16:54N 33°45' W 118°13'0 0.1
2017-Aug-10 11:39N 33°45' W 118°13'0 3.2
2017-Aug-10 11:30N 33°46' W 118°13'1 1.3
2017-Aug-10 10:58N 33°46' W 118°14'1 1.3
2017-Aug-10 10:30N 33°46' W 118°13'1 0.2
2017-Aug-10 04:50N 33°45' W 118°13'1 0.9
2017-Aug-10 04:09N 33°45' W 118°14'1 3.6
2017-Aug-10 04:00N 33°45' W 118°14'0 0.9
2017-Aug-10 03:30N 33°45' W 118°14'2 4.7
2017-Aug-10 03:00N 33°43' W 118°15'1 2.2
2017-Aug-10 02:30N 33°44' W 118°16'1 1.4
2017-Aug-10 02:01N 33°44' W 118°15'1 2.3
2017-Aug-10 01:31N 33°43' W 118°16'0 0.7
2017-Aug-10 00:59N 33°44' W 118°17'0 0.0
2017-Aug-10 00:30N 33°44' W 118°17'0 0.0
2017-Aug-09 23:06N 33°44' W 118°17'0 4.5
2017-Aug-09 23:00N 33°44' W 118°17'1 1.5
2017-Aug-09 22:31N 33°45' W 118°16'1 1.3
2017-Aug-09 22:00N 33°44' W 118°17'2 4.6
2017-Aug-09 21:30N 33°43' W 118°14'2 3.1
2017-Aug-09 20:57N 33°44' W 118°16'0 0.2
2017-Aug-09 19:17N 33°44' W 118°17'0 0.0
2017-Aug-09 14:03N 33°44' W 118°17'2 7.3
2017-Aug-09 13:49N 33°43' W 118°15'2 5.9
2017-Aug-09 13:25N 33°45' W 118°14'0 0.6
2017-Aug-09 13:00N 33°45' W 118°14'0 0.1
2017-Aug-09 12:29N 33°45' W 118°14'1 2.9
2017-Aug-09 11:57N 33°45' W 118°12'0 1.1
2017-Aug-09 11:30N 33°44' W 118°12'1 1.7
2017-Aug-09 11:00N 33°44' W 118°12'3 5.8
2017-Aug-09 10:30N 33°46' W 118°13'2 2.0
2017-Aug-09 09:30N 33°46' W 118°16'3 4.4
2017-Aug-09 08:55N 33°43' W 118°16'3 7.4
2017-Aug-09 08:30N 33°44' W 118°12'2 2.6
2017-Aug-09 07:50N 33°44' W 118°10'1 2.0
2017-Aug-09 07:29N 33°44' W 118°11'4 6.8
2017-Aug-09 06:55N 33°43' W 118°15'1 1.4
2017-Aug-09 05:59N 33°44' W 118°17'0 0.0
2017-Aug-09 04:20N 33°44' W 118°17'0 0.0
2017-Aug-09 04:00N 33°44' W 118°17'0 0.0
2017-Aug-09 03:25N 33°44' W 118°17'0 0.0
2017-Aug-09 02:58N 33°44' W 118°17'0 0.0
2017-Aug-09 02:26N 33°44' W 118°17'0 0.0
2017-Aug-09 02:00N 33°44' W 118°17'0 0.0
2017-Aug-09 01:30N 33°44' W 118°17'0 0.0
2017-Aug-09 01:00N 33°44' W 118°17'0 0.0
2017-Aug-09 00:30N 33°44' W 118°17'0 0.0
2017-Aug-09 00:00N 33°44' W 118°17'0 0.0
2017-Aug-08 23:29N 33°44' W 118°17'1 1.4
2017-Aug-08 23:00N 33°44' W 118°17'1 1.7
2017-Aug-08 22:30N 33°45' W 118°16'0 0.0
2017-Aug-08 22:00N 33°45' W 118°16'0 0.0
2017-Aug-08 21:30N 33°45' W 118°16'0 0.0
2017-Aug-08 21:00N 33°45' W 118°16'0 0.0
2017-Aug-08 20:30N 33°45' W 118°16'0 0.0
2017-Aug-08 20:00N 33°45' W 118°16'0 0.0
2017-Aug-08 19:30N 33°45' W 118°16'0 0.0
2017-Aug-08 19:00N 33°45' W 118°16'1 2.9
2017-Aug-08 18:30N 33°44' W 118°17'0 0.0
2017-Aug-08 17:47N 33°44' W 118°17'0 0.0
2017-Aug-08 17:30N 33°44' W 118°17'0 0.0
2017-Aug-08 16:50N 33°44' W 118°17'0 0.0
2017-Aug-08 16:30N 33°44' W 118°17'0 0.0
2017-Aug-08 15:25N 33°44' W 118°17'0 0.0
2017-Aug-08 15:00N 33°44' W 118°17'3 1.7
2017-Aug-08 13:24N 33°45' W 118°14'1 1.6
2017-Aug-08 12:56N 33°45' W 118°14'0 0.2
2017-Aug-08 12:30N 33°45' W 118°14'0 0.7
2017-Aug-08 12:00N 33°45' W 118°14'2 1.1
2017-Aug-08 10:30N 33°45' W 118°12'3 1.0
2017-Aug-08 07:44N 33°43' W 118°15'1 6.3
2017-Aug-08 07:30N 33°44' W 118°16'0 0.6
2017-Aug-08 07:00N 33°44' W 118°17'  
Track history (hours):
 
Tides and Currents Weather Stations Pressure Air Temp Water Temp Dewpoint Dewpoint Depression Visibility Wind Speed Wind Dir Waves Ship Positions

Independence

Owner: AMNAV Maritime Corporation, Oakland, CA. More information available from US FCC via Universal Licensing System and Coast Guard Vessel Documentation Center.

Last reported at 2017-Aug-18 04:30 UTC. Time now 2017-Aug-18 04:53 UTC.
Position N 33°43' W 118°16'.

Length 24 m; draft 4.9 m.

Type: Tug. MMSI: 367175860.

Date/timePositionNaut miles runAvg speedWind from/ knotsBaromVisibWave heightAir tempDewpointWater temp
2017-Aug-18 04:30N 33°43' W 118°16'3 5.7
2017-Aug-18 03:58N 33°45' W 118°13'1 2.9
2017-Aug-18 03:30N 33°46' W 118°14'0 0.1
2017-Aug-18 02:59N 33°46' W 118°14'3 4.9
2017-Aug-18 02:22N 33°43' W 118°14'2 6.2
2017-Aug-18 02:00N 33°44' W 118°17'0 0.0
2017-Aug-18 01:30N 33°44' W 118°17'0 0.0
2017-Aug-18 00:58N 33°44' W 118°17'0 0.0
2017-Aug-18 00:30N 33°44' W 118°17'0 0.0
2017-Aug-18 00:00N 33°44' W 118°17'1 1.7
2017-Aug-17 23:30N 33°45' W 118°17'0 0.7
2017-Aug-17 23:00N 33°45' W 118°16'1 0.2
2017-Aug-17 17:41N 33°44' W 118°17'0 0.0
2017-Aug-17 14:13N 33°44' W 118°17'1 2.6
2017-Aug-17 13:56N 33°44' W 118°17'1 1.7
2017-Aug-17 13:29N 33°45' W 118°16'0 0.4
2017-Aug-17 13:00N 33°45' W 118°16'2 0.1
2017-Aug-17 01:06N 33°44' W 118°17'0 3.1
2017-Aug-17 00:59N 33°43' W 118°16'2 0.6
2017-Aug-16 22:02N 33°42' W 118°15'2 0.3
2017-Aug-16 13:26N 33°44' W 118°16'0 0.0
2017-Aug-16 12:38N 33°44' W 118°16'0 0.0
2017-Aug-16 12:15N 33°44' W 118°16'0 0.0
2017-Aug-16 12:00N 33°44' W 118°16'0 0.0
2017-Aug-16 08:20N 33°44' W 118°16'0 0.0
2017-Aug-16 07:59N 33°44' W 118°16'0 0.0
2017-Aug-16 07:14N 33°44' W 118°16'0 0.0
2017-Aug-16 04:26N 33°44' W 118°16'0 0.0
2017-Aug-16 03:56N 33°44' W 118°16'0 0.0
2017-Aug-16 02:47N 33°44' W 118°16'0 0.0
2017-Aug-16 02:28N 33°44' W 118°16'3 0.2
2017-Aug-15 05:55N 33°45' W 118°13'3 0.5
2017-Aug-14 23:33N 33°44' W 118°16'0 0.1
2017-Aug-14 23:22N 33°44' W 118°16'2 5.2
2017-Aug-14 23:00N 33°45' W 118°16'1 2.7
2017-Aug-14 22:29N 33°46' W 118°14'1 2.2
2017-Aug-14 22:00N 33°45' W 118°13'1 0.5
2017-Aug-14 20:48N 33°45' W 118°13'0 0.3
2017-Aug-14 19:50N 33°45' W 118°13'3 0.5
2017-Aug-14 13:23N 33°44' W 118°16'3 6.4
2017-Aug-14 12:58N 33°44' W 118°13'2 2.7
2017-Aug-14 12:25N 33°44' W 118°12'1 1.1
2017-Aug-14 11:43N 33°44' W 118°12'4 3.2
2017-Aug-14 10:31N 33°43' W 118°16'0 6.6
2017-Aug-14 10:30N 33°44' W 118°16'0 0.0
2017-Aug-14 02:29N 33°44' W 118°16'2 4.0
2017-Aug-14 02:00N 33°46' W 118°16'0 0.4
2017-Aug-14 00:59N 33°46' W 118°15'2 3.6
2017-Aug-14 00:30N 33°44' W 118°17'2 4.8
2017-Aug-14 00:00N 33°43' W 118°15'1 1.0
2017-Aug-13 23:30N 33°43' W 118°15'2 4.6
2017-Aug-13 22:59N 33°45' W 118°16'0 0.5
2017-Aug-13 22:30N 33°45' W 118°16'2 3.1
2017-Aug-13 22:01N 33°44' W 118°17'2 2.4
2017-Aug-13 21:19N 33°43' W 118°15'1 1.9
2017-Aug-13 20:33N 33°44' W 118°16'2 1.4
2017-Aug-13 19:29N 33°43' W 118°15'1 2.0
2017-Aug-13 18:51N 33°43' W 118°16'2 5.0
2017-Aug-13 18:29N 33°45' W 118°16'1 1.0
2017-Aug-13 17:48N 33°46' W 118°16'0 0.5
2017-Aug-13 17:07N 33°45' W 118°16'1 5.9
2017-Aug-13 17:00N 33°45' W 118°16'1 2.4
2017-Aug-13 16:29N 33°44' W 118°16'0 0.0
2017-Aug-13 13:25N 33°44' W 118°16'2 6.0
2017-Aug-13 13:00N 33°44' W 118°13'2 0.9
2017-Aug-13 11:09N 33°45' W 118°13'0 0.2
2017-Aug-13 11:00N 33°45' W 118°13'3 3.2
2017-Aug-13 10:12N 33°44' W 118°11'2 3.3
2017-Aug-13 09:32N 33°43' W 118°14'1 9.2
2017-Aug-13 09:29N 33°43' W 118°14'2 3.7
2017-Aug-13 08:59N 33°44' W 118°16'0 0.0
2017-Aug-13 07:31N 33°44' W 118°16'0 0.0
2017-Aug-13 03:44N 33°44' W 118°16'0 0.0
2017-Aug-13 03:19N 33°44' W 118°16'0 0.0
2017-Aug-13 03:00N 33°44' W 118°16'0 0.0
2017-Aug-13 02:15N 33°44' W 118°16'0 0.0
2017-Aug-13 02:00N 33°44' W 118°16'0 0.0
2017-Aug-13 01:26N 33°44' W 118°16'0 0.0
2017-Aug-13 00:59N 33°44' W 118°16'0 0.0
2017-Aug-13 00:08N 33°44' W 118°16'0 0.0
2017-Aug-12 23:55N 33°44' W 118°16'0 0.0
2017-Aug-12 23:30N 33°44' W 118°16'0 0.0
2017-Aug-12 23:00N 33°44' W 118°16'0 0.0
2017-Aug-12 20:57N 33°44' W 118°16'0 0.0
2017-Aug-12 20:30N 33°44' W 118°16'0 0.0
2017-Aug-12 19:00N 33°44' W 118°16'0 0.0
2017-Aug-12 18:29N 33°44' W 118°16'0 0.0
2017-Aug-12 18:00N 33°44' W 118°16'0 0.0
2017-Aug-12 14:56N 33°44' W 118°16'0 0.0
2017-Aug-12 10:14N 33°44' W 118°16'0 0.0
2017-Aug-12 09:54N 33°44' W 118°16'0 0.0
2017-Aug-12 09:26N 33°44' W 118°16'0 0.0
2017-Aug-12 08:55N 33°44' W 118°16'0 0.0
2017-Aug-12 08:30N 33°44' W 118°16'0 0.0
2017-Aug-12 07:58N 33°44' W 118°16'0 0.0
2017-Aug-12 07:27N 33°44' W 118°16'0 0.0
2017-Aug-12 07:00N 33°44' W 118°16'0 0.0
2017-Aug-12 06:30N 33°44' W 118°16'0 0.0
2017-Aug-12 06:00N 33°44' W 118°16'0 0.0
2017-Aug-12 05:30N 33°44' W 118°16'0 0.0
2017-Aug-12 05:00N 33°44' W 118°16'0 0.0
2017-Aug-12 04:30N 33°44' W 118°16'0 0.0
2017-Aug-12 04:00N 33°44' W 118°16'0 0.0
2017-Aug-12 03:30N 33°44' W 118°16'0 0.0
2017-Aug-12 02:58N 33°44' W 118°16'3 6.2
2017-Aug-12 02:31N 33°44' W 118°13'1 2.1
2017-Aug-12 02:00N 33°45' W 118°12'1 1.9
2017-Aug-12 01:30N 33°44' W 118°13'3 4.5
2017-Aug-12 00:51N 33°44' W 118°16'0 0.0
2017-Aug-12 00:30N 33°44' W 118°16'0 0.0
2017-Aug-12 00:00N 33°44' W 118°16'0 0.0
2017-Aug-11 23:30N 33°44' W 118°16'0 0.0
2017-Aug-11 23:00N 33°44' W 118°16'0 0.0
2017-Aug-11 22:30N 33°44' W 118°16'0 0.0
2017-Aug-11 22:00N 33°44' W 118°16'0 0.0
2017-Aug-11 21:29N 33°44' W 118°16'0 0.0
2017-Aug-11 20:59N 33°44' W 118°16'0 0.0
2017-Aug-11 20:21N 33°44' W 118°16'0 0.1
2017-Aug-11 18:47N 33°44' W 118°17'0 0.0
2017-Aug-11 16:50N 33°44' W 118°17'0 0.1
2017-Aug-11 15:54N 33°44' W 118°16'0 0.0
2017-Aug-11 13:10N 33°44' W 118°17'2 7.0
2017-Aug-11 12:55N 33°43' W 118°15'3 8.0
2017-Aug-11 12:30N 33°44' W 118°11'0 0.9
2017-Aug-11 11:59N 33°44' W 118°11'0 0.8
2017-Aug-11 11:29N 33°44' W 118°11'4 8.0
2017-Aug-11 10:58N 33°43' W 118°16'1 1.5
2017-Aug-11 10:28N 33°44' W 118°17'0 0.0
2017-Aug-11 10:00N 33°44' W 118°17'0 0.0
2017-Aug-11 05:33N 33°44' W 118°17'0 0.0
2017-Aug-11 05:30N 33°44' W 118°17'0 0.0
2017-Aug-11 03:28N 33°44' W 118°17'0 0.2
2017-Aug-11 03:01N 33°44' W 118°16'1 2.6
2017-Aug-11 02:30N 33°45' W 118°16'0 0.7
2017-Aug-11 02:00N 33°45' W 118°16'0 0.1
2017-Aug-11 01:28N 33°45' W 118°16'2 4.2
2017-Aug-11 01:00N 33°43' W 118°16'1 3.0
2017-Aug-11 00:30N 33°45' W 118°16'1 1.6
2017-Aug-10 23:59N 33°44' W 118°16'0 0.3
2017-Aug-10 23:30N 33°44' W 118°17'0 0.0
2017-Aug-10 22:58N 33°44' W 118°17'0 0.0
2017-Aug-10 22:29N 33°44' W 118°17'0 0.0
2017-Aug-10 22:00N 33°44' W 118°17'2 4.8
2017-Aug-10 21:30N 33°44' W 118°14'2 3.7
2017-Aug-10 21:00N 33°45' W 118°13'1 1.7
2017-Aug-10 20:30N 33°46' W 118°13'1 2.1
2017-Aug-10 20:00N 33°45' W 118°13'0 0.5
2017-Aug-10 19:28N 33°45' W 118°13'0 0.0
2017-Aug-10 18:58N 33°45' W 118°13'0 0.5
2017-Aug-10 18:30N 33°45' W 118°13'0 0.1
2017-Aug-10 16:54N 33°45' W 118°13'0 0.1
2017-Aug-10 11:39N 33°45' W 118°13'0 3.2
2017-Aug-10 11:30N 33°46' W 118°13'1 1.3
2017-Aug-10 10:58N 33°46' W 118°14'1 1.3
2017-Aug-10 10:30N 33°46' W 118°13'1 0.2
2017-Aug-10 04:50N 33°45' W 118°13'1 0.9
2017-Aug-10 04:09N 33°45' W 118°14'1 3.6
2017-Aug-10 04:00N 33°45' W 118°14'0 0.9
2017-Aug-10 03:30N 33°45' W 118°14'2 4.7
2017-Aug-10 03:00N 33°43' W 118°15'1 2.2
2017-Aug-10 02:30N 33°44' W 118°16'1 1.4
2017-Aug-10 02:01N 33°44' W 118°15'1 2.3
2017-Aug-10 01:31N 33°43' W 118°16'0 0.7
2017-Aug-10 00:59N 33°44' W 118°17'0 0.0
2017-Aug-10 00:30N 33°44' W 118°17'0 0.0
2017-Aug-09 23:06N 33°44' W 118°17'0 4.5
2017-Aug-09 23:00N 33°44' W 118°17'1 1.5
2017-Aug-09 22:31N 33°45' W 118°16'1 1.3
2017-Aug-09 22:00N 33°44' W 118°17'2 4.6
2017-Aug-09 21:30N 33°43' W 118°14'2 3.1
2017-Aug-09 20:57N 33°44' W 118°16'0 0.2
2017-Aug-09 19:17N 33°44' W 118°17'0 0.0
2017-Aug-09 14:03N 33°44' W 118°17'2 7.3
2017-Aug-09 13:49N 33°43' W 118°15'2 5.9
2017-Aug-09 13:25N 33°45' W 118°14'0 0.6
2017-Aug-09 13:00N 33°45' W 118°14'0 0.1
2017-Aug-09 12:29N 33°45' W 118°14'1 2.9
2017-Aug-09 11:57N 33°45' W 118°12'0 1.1
2017-Aug-09 11:30N 33°44' W 118°12'1 1.7
2017-Aug-09 11:00N 33°44' W 118°12'3 5.8
2017-Aug-09 10:30N 33°46' W 118°13'2 2.0
2017-Aug-09 09:30N 33°46' W 118°16'3 4.4
2017-Aug-09 08:55N 33°43' W 118°16'3 7.4
2017-Aug-09 08:30N 33°44' W 118°12'2 2.6
2017-Aug-09 07:50N 33°44' W 118°10'1 2.0
2017-Aug-09 07:29N 33°44' W 118°11'4 6.8
2017-Aug-09 06:55N 33°43' W 118°15'1 1.4
2017-Aug-09 05:59N 33°44' W 118°17'0 0.0
2017-Aug-09 04:20N 33°44' W 118°17'0 0.0
2017-Aug-09 04:00N 33°44' W 118°17'0 0.0
2017-Aug-09 03:25N 33°44' W 118°17'0 0.0
2017-Aug-09 02:58N 33°44' W 118°17'0 0.0
2017-Aug-09 02:26N 33°44' W 118°17'0 0.0
2017-Aug-09 02:00N 33°44' W 118°17'0 0.0
2017-Aug-09 01:30N 33°44' W 118°17'0 0.0
2017-Aug-09 01:00N 33°44' W 118°17'0 0.0
2017-Aug-09 00:30N 33°44' W 118°17'0 0.0
2017-Aug-09 00:00N 33°44' W 118°17'0 0.0
2017-Aug-08 23:29N 33°44' W 118°17'1 1.4
2017-Aug-08 23:00N 33°44' W 118°17'1 1.7
2017-Aug-08 22:30N 33°45' W 118°16'0 0.0
2017-Aug-08 22:00N 33°45' W 118°16'0 0.0
2017-Aug-08 21:30N 33°45' W 118°16'0 0.0
2017-Aug-08 21:00N 33°45' W 118°16'0 0.0
2017-Aug-08 20:30N 33°45' W 118°16'0 0.0
2017-Aug-08 20:00N 33°45' W 118°16'0 0.0
2017-Aug-08 19:30N 33°45' W 118°16'0 0.0
2017-Aug-08 19:00N 33°45' W 118°16'1 2.9
2017-Aug-08 18:30N 33°44' W 118°17'0 0.0
2017-Aug-08 17:47N 33°44' W 118°17'0 0.0
2017-Aug-08 17:30N 33°44' W 118°17'0 0.0
2017-Aug-08 16:50N 33°44' W 118°17'0 0.0
2017-Aug-08 16:30N 33°44' W 118°17'0 0.0
2017-Aug-08 15:25N 33°44' W 118°17'0 0.0
2017-Aug-08 15:00N 33°44' W 118°17'3 1.7
2017-Aug-08 13:24N 33°45' W 118°14'1 1.6
2017-Aug-08 12:56N 33°45' W 118°14'0 0.2
2017-Aug-08 12:30N 33°45' W 118°14'0 0.7
2017-Aug-08 12:00N 33°45' W 118°14'2 1.1
2017-Aug-08 10:30N 33°45' W 118°12'3 1.0
2017-Aug-08 07:44N 33°43' W 118°15'1 6.3
2017-Aug-08 07:30N 33°44' W 118°16'0 0.6
2017-Aug-08 07:00N 33°44' W 118°17'  

Dump ship's entire track history